Hauptseite
METAR-TAF:

METAR-TAF

Flughäfen :

Chinandega, Nicaragua

Breite: 12-38N, Länge: 087-08W, Höhe: 53 m

Beobachtung

Neuester Wetterbericht von vor 4 Stunden und 35 Minuten, um 23:00 UTC
Wind 4 kt aus Süd
Temperatur 28°C
Luftfeuchtigkeit 89%
Luftdruck 1009 hPa
Sichtweite: 8000 m
Leicht bewölkt in der Höhe von 2400 ft, Kumulonimbus.
Aufgelockert bewölkt in der Höhe von 2500 ft, Towering cumulus.
in der Nähe, Regen,

METAR: MNCH 172300Z 19004KT 8000 VCRA FEW024CB SCT025TCU 28/26 Q1009 CBRA/NE/E TCU/SE/S REDZ

Zeit: 21:35 (03:35 UTC)


TAF: fehlend

Wetterbeobachtungen und Prognosen von mehr als 4000 Flughäfen (METAR und TAF Bericht).

Die verfügbaren Stationen werden durch gelbe und rote Markierungen auf der Karte dargestellt.

Führen Sie die Maus auf sie, um den Namen der Station zu sehen.

Darauf klicken, um die Beobachtung von Wetterbeobachtungen und Prognosen zu sehen.

Um die Karte zu ändern : klicken Sie auf den grünen Tasten mit einem schwarzen Kreuz Zum Vergrößern, auf den grünen Button mit einem Gedankenstrich zu verkleinern, oder auf die grünen Pfeile für benachbarte Karten.


METAR-TAF: